Time;durP1;ratioP1;P1;durP2;ratioP2;P2;SDS_P1;SDS_P2;PMS_P1;PMS_P2;Temp;Humidity;BMP_temperature;BMP_pressure;BME280_temperature;BME280_humidity;BME280_pressure;Samples;Min_cycle;Max_cycle;Signal;HPM_P1;HPM_P2
2021/10/01 00:00:18;;;;;;;2.20;1.13;;;13.40;62.50;;;;;;4980059;28;20432;-92
2021/10/01 00:02:47;;;;;;;1.40;1.30;;;13.10;67.10;;;;;;4964875;28;20606;-95
2021/10/01 00:05:13;;;;;;;3.40;1.33;;;12.70;65.10;;;;;;4965416;28;20268;-92
2021/10/01 00:07:39;;;;;;;2.33;1.27;;;13.40;65.80;;;;;;4965480;28;20897;-92
2021/10/01 00:10:09;;;;;;;1.50;1.40;;;12.70;61.30;;;;;;4969549;28;20190;-92
2021/10/01 00:12:35;;;;;;;2.60;1.73;;;13.40;63.10;;;;;;4970158;28;20448;-92
2021/10/01 00:15:07;;;;;;;1.80;1.43;;;13.70;64.50;;;;;;4966316;28;20425;-93
2021/10/01 00:17:39;;;;;;;2.17;1.00;;;14.20;66.40;;;;;;4972363;28;20180;-93
2021/10/01 00:20:06;;;;;;;2.40;1.40;;;13.90;67.30;;;;;;4965429;28;20508;-91
2021/10/01 00:22:31;;;;;;;2.13;1.20;;;12.50;61.30;;;;;;4967120;28;20476;-93
2021/10/01 00:24:58;;;;;;;0.93;0.93;;;12.50;61.30;;;;;;4964268;28;20924;-93
2021/10/01 00:27:23;;;;;;;1.20;1.10;;;14.60;66.00;;;;;;4973476;28;20202;-92
2021/10/01 00:29:51;;;;;;;2.33;1.10;;;;;;;;;;4953805;28;20425;-92
2021/10/01 00:32:17;;;;;;;2.80;1.60;;;12.60;60.10;;;;;;4967916;28;20189;-92
2021/10/01 00:34:42;;;;;;;1.63;1.47;;;11.20;64.10;;;;;;4964744;28;20434;-92
2021/10/01 00:37:11;;;;;;;1.50;1.40;;;11.60;60.00;;;;;;4987000;28;20178;-94
2021/10/01 00:39:38;;;;;;;0.90;0.90;;;14.60;67.00;;;;;;4964948;28;20192;-93
2021/10/01 00:42:04;;;;;;;2.97;1.87;;;11.60;62.40;;;;;;4984319;28;20469;-92
2021/10/01 00:44:30;;;;;;;2.83;1.30;;;;;;;;;;4967701;28;20429;-94
2021/10/01 00:47:01;;;;;;;2.10;1.03;;;12.50;60.60;;;;;;4989308;28;20178;-93
2021/10/01 00:49:27;;;;;;;2.37;1.37;;;12.50;63.40;;;;;;4949217;28;20433;-93
2021/10/01 00:51:54;;;;;;;1.90;1.13;;;14.60;66.60;;;;;;4970372;28;20461;-92
2021/10/01 00:54:20;;;;;;;1.23;1.00;;;13.60;68.00;;;;;;4964432;28;20488;-93
2021/10/01 00:56:46;;;;;;;2.27;1.43;;;12.90;62.90;;;;;;4966604;28;20417;-93
2021/10/01 00:59:12;;;;;;;3.83;1.27;;;11.10;60.90;;;;;;4969978;28;20421;-92
2021/10/01 01:01:38;;;;;;;1.43;0.77;;;;;;;;;;4964633;28;20511;-91
2021/10/01 01:04:08;;;;;;;0.90;0.90;;;12.40;60.50;;;;;;4963783;28;20186;-91
2021/10/01 01:06:44;;;;;;;1.33;1.20;;;11.30;59.90;;;;;;4965964;28;20410;-93
2021/10/01 01:09:32;;;;;;;2.03;1.40;;;12.50;61.20;;;;;;4965072;28;20425;-92
2021/10/01 01:12:38;;;;;;;1.80;1.70;;;12.30;61.20;;;;;;4969196;28;20813;-93
2021/10/01 01:15:15;;;;;;;1.43;1.20;;;12.40;60.40;;;;;;4965159;28;20433;-92
2021/10/01 01:18:01;;;;;;;1.27;1.13;;;12.40;61.10;;;;;;4951595;28;20413;-94
2021/10/01 01:20:40;;;;;;;1.03;1.03;;;12.40;60.50;;;;;;4966204;28;20426;-92
2021/10/01 01:23:25;;;;;;;2.30;1.40;;;12.40;60.60;;;;;;4964786;28;20507;-92
2021/10/01 01:26:15;;;;;;;1.47;1.40;;;12.40;60.50;;;;;;4963555;28;20444;-93
2021/10/01 01:29:11;;;;;;;1.70;1.00;;;12.40;60.60;;;;;;4964080;28;20444;-92
2021/10/01 01:31:49;;;;;;;5.20;1.13;;;12.70;61.10;;;;;;4985551;28;20418;-93
2021/10/01 01:34:37;;;;;;;1.27;1.27;;;12.50;61.00;;;;;;4967557;28;20417;-91
2021/10/01 01:37:08;;;;;;;1.10;1.10;;;12.40;60.40;;;;;;4970031;28;20781;-91
2021/10/01 01:39:36;;;;;;;2.00;0.90;;;13.20;62.10;;;;;;4987829;28;20485;-93
2021/10/01 01:42:11;;;;;;;2.63;1.27;;;11.90;59.90;;;;;;4984349;28;20472;-93
2021/10/01 01:44:37;;;;;;;1.13;1.13;;;12.30;60.90;;;;;;4972065;28;20433;-93
2021/10/01 01:47:04;;;;;;;1.43;1.17;;;13.80;66.20;;;;;;4967511;28;20428;-94
2021/10/01 01:49:31;;;;;;;1.20;1.00;;;12.20;61.30;;;;;;4964530;28;20516;-93
2021/10/01 01:52:06;;;;;;;4.37;1.03;;;12.40;61.00;;;;;;4961801;28;20445;-93
2021/10/01 01:54:33;;;;;;;1.30;1.20;;;12.40;61.20;;;;;;4965543;28;20425;-92
2021/10/01 01:57:08;;;;;;;2.63;1.20;;;14.70;65.10;;;;;;4964698;28;20413;-94
2021/10/01 01:59:39;;;;;;;0.80;0.80;;;12.40;63.30;;;;;;4965339;28;20440;-92
2021/10/01 02:02:05;;;;;;;1.47;1.33;;;13.90;63.30;;;;;;4962438;28;21087;-93
2021/10/01 02:04:32;;;;;;;3.23;1.03;;;14.60;70.70;;;;;;4965333;28;20505;-93
2021/10/01 02:07:00;;;;;;;5.20;1.40;;;10.80;61.90;;;;;;4961996;28;20402;-92
2021/10/01 02:09:27;;;;;;;4.93;1.13;;;12.40;61.60;;;;;;4965198;28;20474;-92
2021/10/01 02:11:52;;;;;;;2.60;1.20;;;12.90;61.90;;;;;;4965719;28;20410;-92
2021/10/01 02:14:24;;;;;;;1.20;0.80;;;14.50;67.30;;;;;;4959420;28;20419;-91
2021/10/01 02:16:51;;;;;;;1.17;0.93;;;14.30;65.40;;;;;;4963911;28;20414;-92
2021/10/01 02:19:20;;;;;;;2.13;0.90;;;13.80;63.20;;;;;;4961525;28;20417;-93
2021/10/01 02:21:50;;;;;;;4.37;1.10;;;12.60;61.60;;;;;;4963549;28;20465;-93
2021/10/01 02:24:23;;;;;;;2.03;0.80;;;13.80;64.50;;;;;;4966101;28;20448;-92
2021/10/01 02:27:00;;;;;;;1.60;1.27;;;12.20;61.40;;;;;;4962843;28;20444;-94
2021/10/01 02:29:29;;;;;;;1.50;1.03;;;12.10;61.90;;;;;;4965783;28;20411;-91
2021/10/01 02:32:32;;;;;;;1.63;1.00;;;11.00;59.70;;;;;;4961164;29;20476;-92
2021/10/01 02:34:58;;;;;;;1.30;1.00;;;12.10;60.90;;;;;;4967334;28;20520;-92
2021/10/01 02:37:28;;;;;;;0.90;0.90;;;13.80;67.30;;;;;;4967490;29;20399;-92
2021/10/01 02:39:56;;;;;;;1.07;1.03;;;12.10;64.50;;;;;;4950022;29;20426;-93
2021/10/01 02:42:24;;;;;;;1.30;1.30;;;13.00;64.40;;;;;;4964939;28;20466;-93
2021/10/01 02:44:52;;;;;;;4.30;1.10;;;13.20;64.00;;;;;;4963627;28;20815;-94
2021/10/01 02:47:19;;;;;;;4.60;1.00;;;12.50;61.00;;;;;;4964993;28;20414;-93
2021/10/01 02:49:48;;;;;;;0.80;0.77;;;13.80;64.00;;;;;;4964643;28;20432;-94
2021/10/01 02:52:35;;;;;;;1.27;0.90;;;13.90;67.30;;;;;;4959739;28;20441;-94
2021/10/01 02:55:15;;;;;;;3.37;1.27;;;12.20;60.40;;;;;;4962077;29;20410;-93
2021/10/01 02:57:49;;;;;;;0.73;0.73;;;12.10;60.10;;;;;;4959323;28;20486;-94
2021/10/01 03:00:16;;;;;;;2.23;1.20;;;14.20;62.80;;;;;;4958730;28;20414;-93
2021/10/01 03:02:56;;;;;;;;;;;;;;;;;;;;;
2021/10/01 03:05:44;;;;;;;4.63;1.17;;;14.30;62.70;;;;;;4963837;28;20509;-93
2021/10/01 03:08:15;;;;;;;1.53;0.93;;;13.20;65.80;;;;;;4958079;28;20442;-94
2021/10/01 03:10:43;;;;;;;1.10;1.10;;;13.80;65.30;;;;;;4966469;28;20422;-92
2021/10/01 03:13:09;;;;;;;1.23;1.10;;;14.00;62.50;;;;;;4960288;28;20425;-91
2021/10/01 03:15:36;;;;;;;1.20;1.10;;;14.40;64.70;;;;;;4959046;28;20407;-92
2021/10/01 03:18:02;;;;;;;1.60;0.90;;;12.50;60.90;;;;;;4959491;28;20414;-92
2021/10/01 03:20:35;;;;;;;1.33;0.80;;;12.10;60.60;;;;;;4960758;28;20417;-94
2021/10/01 03:23:01;;;;;;;1.07;0.97;;;12.30;64.00;;;;;;4956798;28;20532;-93
2021/10/01 03:25:27;;;;;;;1.70;1.60;;;11.80;64.00;;;;;;4960061;28;20413;-93
2021/10/01 03:27:53;;;;;;;2.77;1.23;;;12.70;62.90;;;;;;4959017;28;20937;-87
2021/10/01 03:30:19;;;;;;;1.00;1.00;;;13.80;65.10;;;;;;4956565;28;20414;-91
2021/10/01 03:32:50;;;;;;;1.07;1.07;;;13.70;65.30;;;;;;4957017;28;20418;-93
2021/10/01 03:35:16;;;;;;;1.40;1.00;;;12.60;60.90;;;;;;4957355;28;20477;-93
2021/10/01 03:37:45;;;;;;;1.20;1.10;;;13.20;69.70;;;;;;4960386;28;20463;-92
2021/10/01 03:40:12;;;;;;;0.80;0.80;;;13.60;63.70;;;;;;4961559;28;20634;-94
2021/10/01 03:42:53;;;;;;;4.60;1.50;;;12.00;65.50;;;;;;4962796;28;20485;-93
2021/10/01 03:45:19;;;;;;;1.83;1.13;;;14.80;67.80;;;;;;4966439;28;20421;-93
2021/10/01 03:47:45;;;;;;;1.00;0.90;;;13.50;65.50;;;;;;4963489;28;20792;-92
2021/10/01 03:50:10;;;;;;;3.70;1.37;;;10.80;62.40;;;;;;4967190;28;20181;-93
2021/10/01 03:52:36;;;;;;;2.20;1.10;;;11.80;61.50;;;;;;4970061;28;20170;-92
2021/10/01 03:55:04;;;;;;;1.07;1.00;;;13.90;69.40;;;;;;4966880;28;20194;-92
2021/10/01 03:57:30;;;;;;;2.80;1.20;;;12.00;64.90;;;;;;4963572;28;20190;-94
2021/10/01 03:59:56;;;;;;;0.90;0.90;;;;;;;;;;4962382;28;20418;-92
2021/10/01 04:02:21;;;;;;;5.70;1.20;;;12.00;60.30;;;;;;4960350;28;20540;-93
2021/10/01 04:04:47;;;;;;;1.10;1.10;;;13.10;63.40;;;;;;4960658;28;20414;-94
2021/10/01 04:07:12;;;;;;;1.00;0.87;;;13.70;63.60;;;;;;4961325;28;20193;-93
2021/10/01 04:09:38;;;;;;;0.90;0.90;;;11.30;62.20;;;;;;4962074;28;20182;-94
2021/10/01 04:12:04;;;;;;;1.00;1.00;;;12.90;63.90;;;;;;4962954;28;20178;-92
2021/10/01 04:14:30;;;;;;;0.60;0.60;;;12.10;62.00;;;;;;4962301;28;20178;-93
2021/10/01 04:16:56;;;;;;;5.57;1.70;;;;;;;;;;4965515;28;20418;-93
2021/10/01 04:19:22;;;;;;;1.40;0.87;;;12.10;60.00;;;;;;4964575;28;20170;-92
2021/10/01 04:21:48;;;;;;;2.67;1.37;;;;;;;;;;4964736;28;20543;-91
2021/10/01 04:24:13;;;;;;;1.17;1.00;;;12.00;60.40;;;;;;4962124;28;20179;-92
2021/10/01 04:26:39;;;;;;;1.23;1.23;;;12.10;64.80;;;;;;4961031;28;20414;-91
2021/10/01 04:29:05;;;;;;;0.90;0.90;;;;;;;;;;4966965;28;20167;-91
2021/10/01 04:31:31;;;;;;;1.03;0.73;;;11.90;60.40;;;;;;4964976;29;20173;-92
2021/10/01 04:33:58;;;;;;;0.87;0.80;;;13.80;70.00;;;;;;4963028;28;20414;-91
2021/10/01 04:36:26;;;;;;;1.03;1.03;;;13.50;67.30;;;;;;4960842;28;20713;-92
2021/10/01 04:38:52;;;;;;;1.17;0.90;;;11.10;65.90;;;;;;4947732;29;20529;-92
2021/10/01 04:41:18;;;;;;;2.83;0.90;;;11.90;61.60;;;;;;4963751;29;20410;-92
2021/10/01 04:43:44;;;;;;;1.27;0.93;;;11.80;64.20;;;;;;4964224;28;20431;-92
2021/10/01 04:46:10;;;;;;;1.20;1.20;;;14.30;67.00;;;;;;4964086;28;20551;-93
2021/10/01 04:48:36;;;;;;;3.17;0.90;;;11.90;64.60;;;;;;4965237;28;20184;-92
2021/10/01 04:51:03;;;;;;;1.63;1.53;;;12.80;66.00;;;;;;4963769;28;20174;-91
2021/10/01 04:53:31;;;;;;;1.87;1.50;;;11.90;60.80;;;;;;4966876;28;20481;-90
2021/10/01 04:55:57;;;;;;;0.97;0.97;;;13.30;69.00;;;;;;4964306;28;20428;-93
2021/10/01 04:58:23;;;;;;;1.20;1.20;;;;;;;;;;4966387;28;20482;-91
2021/10/01 05:00:48;;;;;;;2.10;1.00;;;11.90;60.60;;;;;;4965699;28;20193;-93
2021/10/01 05:03:14;;;;;;;3.33;1.00;;;13.10;69.00;;;;;;4963020;28;20486;-92
2021/10/01 05:05:40;;;;;;;2.47;1.00;;;14.70;67.50;;;;;;4969064;29;20167;-93
2021/10/01 05:08:06;;;;;;;3.47;1.10;;;;;;;;;;4966822;28;20190;-89
2021/10/01 05:10:31;;;;;;;6.30;0.97;;;11.90;60.40;;;;;;4966179;28;20185;-90
2021/10/01 05:12:57;;;;;;;1.60;1.60;;;;;;;;;;4966553;29;20418;-91
2021/10/01 05:15:23;;;;;;;3.57;1.10;;;11.90;60.10;;;;;;4967526;28;20187;-89
2021/10/01 05:17:51;;;;;;;1.33;1.33;;;13.80;66.90;;;;;;4966473;28;20423;-92
2021/10/01 05:20:19;;;;;;;1.10;1.10;;;12.50;63.90;;;;;;4607156;28;10000151;-90
2021/10/01 05:22:45;;;;;;;2.33;2.13;;;13.30;64.60;;;;;;4943660;29;20607;-93
2021/10/01 05:25:11;;;;;;;2.40;1.60;;;;;;;;;;4948250;29;20427;-90
2021/10/01 05:27:39;;;;;;;1.80;0.93;;;11.90;60.00;;;;;;4943549;29;20434;-90
2021/10/01 05:30:06;;;;;;;3.10;1.33;;;9.90;65.60;;;;;;4944016;29;20514;-93
2021/10/01 05:32:37;;;;;;;1.07;1.07;;;11.90;62.40;;;;;;4944127;29;20558;-89
2021/10/01 05:35:03;;;;;;;0.87;0.87;;;12.20;66.70;;;;;;4947300;29;20431;-91
2021/10/01 05:37:50;;;;;;;1.03;1.03;;;11.90;63.50;;;;;;4945031;29;20435;-91
2021/10/01 05:40:19;;;;;;;1.53;1.10;;;15.00;70.10;;;;;;4947287;29;20415;-89
2021/10/01 05:42:47;;;;;;;2.10;1.10;;;14.30;71.40;;;;;;4944021;29;20530;-89
2021/10/01 05:45:13;;;;;;;1.10;1.10;;;12.00;64.90;;;;;;4943556;29;20411;-91
2021/10/01 05:47:46;;;;;;;2.20;1.50;;;11.80;67.00;;;;;;4942790;29;20427;-89
2021/10/01 05:50:16;;;;;;;0.90;0.90;;;12.10;62.60;;;;;;4946277;29;20175;-92
2021/10/01 05:53:13;;;;;;;1.30;1.20;;;12.20;60.70;;;;;;4942385;29;20427;-93
2021/10/01 05:55:46;;;;;;;1.10;1.10;;;12.20;61.20;;;;;;4948602;29;20429;-91
2021/10/01 05:58:12;;;;;;;1.20;1.10;;;14.00;64.90;;;;;;4962323;28;20445;-89
2021/10/01 06:00:38;;;;;;;4.27;1.40;;;11.60;60.50;;;;;;4966508;28;20425;-87
2021/10/01 06:03:03;;;;;;;1.23;1.10;;;13.80;65.50;;;;;;4983379;28;20516;-86
2021/10/01 06:05:35;;;;;;;0.90;0.90;;;11.40;59.90;;;;;;4986682;28;20170;-87
2021/10/01 06:08:04;;;;;;;2.53;0.90;;;13.20;60.60;;;;;;4987618;28;20344;-91
2021/10/01 06:10:32;;;;;;;1.60;0.67;;;12.30;64.50;;;;;;4969032;28;20473;-90
2021/10/01 06:12:58;;;;;;;1.47;0.93;;;13.70;68.80;;;;;;4986027;28;20435;-89
2021/10/01 06:15:23;;;;;;;1.70;1.10;;;15.50;69.40;;;;;;4968888;28;20573;-94
2021/10/01 06:17:51;;;;;;;1.20;1.07;;;14.30;64.80;;;;;;4987626;28;20241;-92
2021/10/01 06:20:29;;;;;;;0.87;0.73;;;14.00;64.60;;;;;;4966590;28;20307;-93
2021/10/01 06:23:19;;;;;;;1.63;0.87;;;12.80;61.30;;;;;;4981705;28;20500;-95
2021/10/01 06:29:17;;;;;;;0.83;0.83;;;13.50;59.40;;;;;;4925326;29;20428;-89
2021/10/01 06:31:45;;;;;;;1.33;1.03;;;12.70;57.80;;;;;;4978564;28;20723;-91
2021/10/01 06:34:12;;;;;;;1.93;1.93;;;14.10;58.40;;;;;;4964702;28;20449;-91
2021/10/01 06:36:38;;;;;;;0.93;0.93;;;15.90;58.60;;;;;;4977075;28;20417;-87
2021/10/01 06:39:05;;;;;;;1.00;1.00;;;14.40;58.80;;;;;;4976618;28;20417;-89
2021/10/01 06:41:31;;;;;;;6.87;1.57;;;15.00;55.20;;;;;;4976974;28;20417;-89
2021/10/01 06:44:03;;;;;;;0.70;0.70;;;18.20;56.90;;;;;;4978112;28;20916;-90
2021/10/01 08:20:22;;;;;;;1.20;1.10;;;19.50;50.00;;;;;;4964508;28;20469;-86
2021/10/01 08:22:53;;;;;;;1.03;1.03;;;;;;;;;;4959026;28;20797;-87
2021/10/01 08:25:25;;;;;;;1.53;1.17;;;;;;;;;;4957917;28;20450;-90
2021/10/01 08:27:58;;;;;;;4.00;0.97;;;;;;;;;;4946761;29;20425;-91
2021/10/01 08:30:29;;;;;;;1.23;1.17;;;;;;;;;;4948686;29;20643;-88
2021/10/01 08:32:58;;;;;;;1.03;1.03;;;;;;;;;;4946571;29;20422;-91
2021/10/01 08:35:34;;;;;;;;;;;;;;;;;;;;;
2021/10/01 08:38:03;;;;;;;0.97;0.97;;;;;;;;;;4969563;28;20508;-87
2021/10/01 08:40:29;;;;;;;1.17;1.17;;;;;;;;;;4966072;28;20490;-91
2021/10/01 08:42:55;;;;;;;0.70;0.70;;;;;;;;;;4965230;28;20499;-88
2021/10/01 08:45:32;;;;;;;1.43;1.00;;;;;;;;;;4965164;28;20418;-91
2021/10/01 08:48:00;;;;;;;2.87;1.30;;;;;;;;;;4983155;28;20414;-89
2021/10/01 08:50:30;;;;;;;1.27;0.90;;;;;;;;;;4963822;28;20437;-86
2021/10/01 08:52:59;;;;;;;1.53;0.80;;;;;;;;;;4969033;28;20484;-91
2021/10/01 08:55:25;;;;;;;0.90;0.90;;;;;;;;;;4987583;28;20427;-87
2021/10/01 08:57:57;;;;;;;1.97;0.83;;;;;;;;;;4969372;28;20442;-89
2021/10/01 09:00:25;;;;;;;1.10;1.10;;;;;;;;;;4984829;28;20416;-94
2021/10/01 09:03:00;;;;;;;0.93;0.93;;;;;;;;;;4967766;28;20513;-91
2021/10/01 09:05:26;;;;;;;0.77;0.77;;;;;;;;;;4985046;28;20437;-90
2021/10/01 09:07:55;;;;;;;1.27;1.27;;;;;;;;;;4967538;28;20428;-93
2021/10/01 09:10:22;;;;;;;1.83;1.23;;;;;;;;;;4645838;28;10000495;-89
2021/10/01 09:13:02;;;;;;;1.13;1.13;;;;;;;;;;5006774;28;20268;-94
2021/10/01 09:15:38;;;;;;;1.03;1.00;;;;;;;;;;4989741;28;20967;-89
2021/10/01 09:18:15;;;;;;;1.50;1.50;;;;;;;;;;4990424;28;20416;-92
2021/10/01 09:20:42;;;;;;;1.10;1.10;;;;;;;;;;4985134;28;20424;-86
2021/10/01 09:23:12;;;;;;;1.20;1.10;;;;;;;;;;4977729;28;20511;-87
2021/10/01 09:25:38;;;;;;;1.20;1.10;;;;;;;;;;4994932;28;20483;-86
2021/10/01 09:28:04;;;;;;;1.37;1.37;;;;;;;;;;4995063;28;20488;-84
2021/10/01 09:33:46;;;;;;;3.33;1.00;;;;;;;;;;4994809;28;20412;-87
2021/10/01 09:36:13;;;;;;;1.17;1.07;;;;;;;;;;4982863;28;20488;-89
2021/10/01 09:38:40;;;;;;;1.30;1.23;;;;;;;;;;4982558;28;20447;-90
2021/10/01 09:41:25;;;;;;;1.37;1.10;;;;;;;;;;4983868;28;20420;-88
2021/10/01 09:44:07;;;;;;;3.97;1.23;;;;;;;;;;4964279;28;20464;-88
2021/10/01 09:46:46;;;;;;;4.63;1.10;;;;;;;;;;4957756;28;20506;-86
2021/10/01 09:49:16;;;;;;;0.93;0.80;;;;;;;;;;4945035;29;20438;-89
2021/10/01 09:52:11;;;;;;;1.23;1.13;;;;;;;;;;4961583;28;20402;-90
2021/10/01 09:54:37;;;;;;;0.90;0.90;;;;;;;;;;4940972;28;20545;-87
2021/10/01 09:57:04;;;;;;;2.77;1.00;;;;;;;;;;4956220;28;20850;-89
2021/10/01 09:59:31;;;;;;;4.93;1.13;;;;;;;;;;4637606;28;10000182;-89
2021/10/01 10:02:05;;;;;;;1.00;1.00;;;;;;;;;;4981192;28;20276;-83
2021/10/01 10:04:36;;;;;;;1.50;1.00;;;;;;;;;;4978775;28;20413;-90
2021/10/01 10:07:10;;;;;;;1.73;1.20;;;;;;;;;;4965574;28;20434;-87
2021/10/01 10:09:38;;;;;;;1.37;1.07;;;;;;;;;;4981959;28;20429;-88
2021/10/01 10:12:04;;;;;;;1.13;1.13;;;;;;;;;;4963111;28;20409;-83
2021/10/01 10:14:34;;;;;;;2.50;2.40;;;;;;;;;;4961694;28;20425;-89
2021/10/01 10:17:19;;;;;;;0.90;0.90;;;;;;;;;;4953028;29;20494;-90
2021/10/01 10:19:49;;;;;;;2.33;1.00;;;;;;;;;;4955039;28;20417;-86
2021/10/01 10:22:15;;;;;;;1.23;1.23;;;;;;;;;;4964404;28;20476;-89
2021/10/01 10:24:41;;;;;;;1.33;1.20;;;;;;;;;;4983689;28;20889;-87
2021/10/01 10:27:07;;;;;;;1.50;1.40;;;;;;;;;;4985965;28;20401;-88
2021/10/01 10:29:36;;;;;;;1.40;1.00;;;;;;;;;;4963608;28;20508;-88
2021/10/01 10:32:06;;;;;;;1.13;0.90;;;;;;;;;;4983164;28;20417;-89
2021/10/01 10:34:32;;;;;;;1.67;1.50;;;;;;;;;;4983850;28;20426;-87
2021/10/01 10:37:01;;;;;;;1.00;1.00;;;;;;;;;;4966710;28;20414;-90
2021/10/01 10:39:33;;;;;;;2.20;2.10;;;;;;;;;;4966357;28;20418;-91
2021/10/01 10:42:09;;;;;;;1.33;1.27;;;;;;;;;;4964467;28;20469;-89
2021/10/01 10:44:41;;;;;;;0.83;0.80;;;;;;;;;;4984024;28;20579;-90
2021/10/01 10:47:36;;;;;;;4.57;1.27;;;;;;;;;;4964910;28;20491;-93
2021/10/01 10:50:21;;;;;;;1.30;1.10;;;;;;;;;;4947279;28;20788;-89
2021/10/01 10:53:14;;;;;;;3.10;1.17;;;;;;;;;;4980621;28;20480;-86
2021/10/01 10:55:50;;;;;;;4.13;0.90;;;;;;;;;;4963242;28;20965;-88
2021/10/01 10:58:26;;;;;;;1.77;1.20;;;;;;;;;;4964678;28;20412;-89
2021/10/01 11:00:55;;;;;;;1.53;1.27;;;;;;;;;;4966513;28;20440;-86
2021/10/01 11:03:23;;;;;;;1.73;1.63;;;;;;;;;;4633056;28;10000463;-88
2021/10/01 11:06:08;;;;;;;1.00;1.00;;;;;;;;;;4956034;28;20181;-82
2021/10/01 11:08:37;;;;;;;2.30;1.13;;;;;;;;;;4958674;28;20501;-86
2021/10/01 11:11:04;;;;;;;1.20;1.10;;;;;;;;;;4956236;28;20406;-85
2021/10/01 11:13:31;;;;;;;1.33;1.23;;;;;;;;;;4963163;29;20949;-89
2021/10/01 11:16:12;;;;;;;1.60;1.50;;;;;;;;;;4961796;28;20494;-91
2021/10/01 11:18:44;;;;;;;1.63;1.63;;;;;;;;;;4942430;29;20524;-86
2021/10/01 11:21:29;;;;;;;1.30;1.30;;;;;;;;;;4943846;29;20899;-88
2021/10/01 11:24:14;;;;;;;1.30;1.30;;;;;;;;;;4961213;28;20468;-90
2021/10/01 11:27:01;;;;;;;2.40;1.10;;;22.30;42.30;;;;;;4960598;28;20520;-87
2021/10/01 11:29:29;;;;;;;1.57;1.00;;;22.60;42.50;;;;;;4943320;29;20430;-87
2021/10/01 11:31:59;;;;;;;1.73;1.27;;;22.50;42.40;;;;;;4945240;29;21009;-89
2021/10/01 11:34:44;;;;;;;2.23;1.33;;;23.10;42.70;;;;;;4961028;28;20913;-92
2021/10/01 11:37:33;;;;;;;1.57;1.47;;;24.00;42.70;;;;;;4944888;29;20429;-87
2021/10/01 11:40:06;;;;;;;1.17;0.90;;;24.30;40.70;;;;;;4946616;29;20450;-90
2021/10/01 11:42:46;;;;;;;;;;;;;;;;;;;;;
2021/10/01 11:45:24;;;;;;;1.20;1.00;;;25.60;40.80;;;;;;4962357;28;20572;-89
2021/10/01 11:47:59;;;;;;;1.27;1.17;;;24.70;40.00;;;;;;4963008;28;20430;-90
2021/10/01 11:50:34;;;;;;;0.70;0.70;;;24.20;39.80;;;;;;4964143;28;20414;-90
2021/10/01 11:53:02;;;;;;;2.40;1.20;;;24.20;40.20;;;;;;4956571;29;20425;-91
2021/10/01 11:55:32;;;;;;;2.47;1.37;;;24.50;41.20;;;;;;4955218;28;20503;-92
2021/10/01 11:58:00;;;;;;;4.53;1.23;;;24.40;40.90;;;;;;4967109;29;20414;-90
2021/10/01 12:00:34;;;;;;;2.17;0.93;;;24.50;40.70;;;;;;4972670;28;20402;-88
2021/10/01 12:03:15;;;;;;;1.17;1.17;;;25.00;40.50;;;;;;4948730;29;20969;-90
2021/10/01 12:05:49;;;;;;;5.80;1.37;;;24.70;39.70;;;;;;4951334;29;20423;-87
2021/10/01 12:08:23;;;;;;;1.30;1.30;;;25.10;39.90;;;;;;4932230;29;20430;-93
2021/10/01 12:11:07;;;;;;;1.00;0.90;;;27.30;41.30;;;;;;4903236;29;20427;-93
2021/10/01 12:13:42;;;;;;;1.27;1.20;;;25.70;40.30;;;;;;4918884;29;20419;-89
2021/10/01 12:16:46;;;;;;;1.27;1.13;;;25.60;41.00;;;;;;4623789;28;10000531;-92
2021/10/01 12:19:40;;;;;;;1.10;1.10;;;25.30;39.70;;;;;;4962414;29;20434;-88
2021/10/01 12:22:16;;;;;;;2.00;1.50;;;24.60;39.90;;;;;;4965907;28;20529;-88
2021/10/01 12:25:09;;;;;;;1.43;1.00;;;24.60;40.10;;;;;;4963286;29;20426;-90
2021/10/01 12:27:40;;;;;;;0.93;0.93;;;24.50;43.10;;;;;;4973390;28;20489;-83
2021/10/01 12:30:07;;;;;;;0.80;0.80;;;25.70;42.00;;;;;;4973359;28;20433;-88
2021/10/01 12:32:53;;;;;;;;;;;;;;;;;;;;;
2021/10/01 12:35:45;;;;;;;2.87;1.47;;;25.00;40.20;;;;;;4962768;28;20482;-89
2021/10/01 12:38:16;;;;;;;2.13;1.17;;;25.50;39.50;;;;;;4995006;28;20459;-88
2021/10/01 12:40:42;;;;;;;0.90;0.90;;;27.90;43.10;;;;;;4986972;28;20429;-86
2021/10/01 12:43:16;;;;;;;1.20;1.10;;;25.90;40.20;;;;;;4988501;28;20835;-90
2021/10/01 12:46:03;;;;;;;1.53;0.83;;;25.80;39.20;;;;;;4979715;28;20179;-90
2021/10/01 12:48:31;;;;;;;0.83;0.83;;;27.60;42.00;;;;;;4963743;28;20466;-91
2021/10/01 12:51:02;;;;;;;1.40;1.30;;;24.90;39.00;;;;;;4963974;28;20540;-85
2021/10/01 12:53:33;;;;;;;1.70;0.77;;;26.10;40.90;;;;;;4965189;28;20483;-89
2021/10/01 12:56:24;;;;;;;1.80;1.00;;;24.50;39.80;;;;;;4961640;28;20481;-91
2021/10/01 12:59:01;;;;;;;1.17;1.17;;;24.60;39.80;;;;;;4963398;28;20486;-91
2021/10/01 13:01:36;;;;;;;1.43;1.27;;;25.10;40.40;;;;;;4967696;28;20477;-92
2021/10/01 13:04:09;;;;;;;3.23;1.00;;;24.80;39.70;;;;;;4963524;28;20629;-91
2021/10/01 13:06:35;;;;;;;1.37;1.27;;;26.20;41.30;;;;;;4957607;29;20774;-86
2021/10/01 13:09:01;;;;;;;1.70;1.20;;;23.10;40.20;;;;;;4941708;29;20435;-90
2021/10/01 13:11:26;;;;;;;1.40;1.30;;;22.50;40.70;;;;;;4949749;29;20521;-89
2021/10/01 13:13:55;;;;;;;6.13;1.73;;;24.80;42.90;;;;;;4962877;28;20210;-92
2021/10/01 13:16:30;;;;;;;2.40;2.30;;;23.00;43.40;;;;;;4963607;28;20560;-90
2021/10/01 13:19:12;;;;;;;3.53;1.20;;;22.80;42.20;;;;;;4961286;28;20505;-87
2021/10/01 13:21:54;;;;;;;3.90;1.10;;;22.80;41.30;;;;;;4964103;28;20407;-92
2021/10/01 13:24:28;;;;;;;2.97;1.40;;;23.70;42.40;;;;;;4965039;28;20453;-93
2021/10/01 13:27:05;;;;;;;0.70;0.70;;;24.00;43.90;;;;;;4965493;28;20441;-89
2021/10/01 13:29:34;;;;;;;1.97;1.00;;;22.20;43.10;;;;;;4963367;28;20422;-92
2021/10/01 13:32:08;;;;;;;2.83;1.40;;;22.40;43.00;;;;;;4964314;28;20419;-90
2021/10/01 13:34:35;;;;;;;1.23;0.97;;;22.40;43.00;;;;;;4962437;28;20421;-92
2021/10/01 13:37:01;;;;;;;1.43;1.33;;;22.30;43.30;;;;;;4961305;28;20531;-89
2021/10/01 13:39:29;;;;;;;1.10;1.00;;;22.10;43.20;;;;;;4963661;28;20427;-88
2021/10/01 13:41:54;;;;;;;1.10;1.10;;;21.50;42.30;;;;;;4963831;28;20194;-89
2021/10/01 13:44:25;;;;;;;2.60;1.20;;;21.70;43.10;;;;;;4963148;29;20525;-90
2021/10/01 13:46:51;;;;;;;2.10;1.70;;;21.50;42.10;;;;;;4948276;29;20279;-91
2021/10/01 13:49:19;;;;;;;1.40;1.30;;;21.30;45.00;;;;;;4964395;28;20439;-89
2021/10/01 13:51:45;;;;;;;1.00;0.90;;;21.60;46.50;;;;;;4964510;28;20174;-87
2021/10/01 13:54:13;;;;;;;1.60;1.50;;;21.90;45.10;;;;;;4963324;28;20477;-91
2021/10/01 13:56:48;;;;;;;1.20;1.17;;;20.70;43.10;;;;;;4965234;28;20175;-90
2021/10/01 13:59:14;;;;;;;1.40;1.30;;;21.60;43.60;;;;;;4965753;28;20538;-87
2021/10/01 14:01:39;;;;;;;1.33;1.20;;;23.00;45.60;;;;;;4968872;28;20508;-92
2021/10/01 14:04:05;;;;;;;1.20;1.20;;;22.50;44.20;;;;;;4635256;28;10000101;-89
2021/10/01 14:06:33;;;;;;;1.20;1.10;;;23.00;45.80;;;;;;4961728;28;20170;-92
2021/10/01 14:08:58;;;;;;;1.20;1.20;;;21.20;42.80;;;;;;4979781;28;20178;-91
2021/10/01 14:11:24;;;;;;;1.23;1.23;;;23.00;44.30;;;;;;4964449;28;20426;-90
2021/10/01 14:13:49;;;;;;;1.33;1.23;;;21.20;43.70;;;;;;4980289;28;20657;-90
2021/10/01 14:16:18;;;;;;;3.17;1.37;;;22.90;45.10;;;;;;4963559;28;20244;-91
2021/10/01 14:18:44;;;;;;;1.30;1.10;;;21.40;43.10;;;;;;4980253;28;20174;-89
2021/10/01 14:21:09;;;;;;;2.10;1.33;;;20.40;43.00;;;;;;4961930;28;20426;-91
2021/10/01 14:23:41;;;;;;;1.07;1.07;;;23.10;43.80;;;;;;4964118;28;20553;-90
2021/10/01 14:26:07;;;;;;;2.23;1.60;;;21.20;40.70;;;;;;4961156;28;20192;-92
2021/10/01 14:28:32;;;;;;;1.17;1.17;;;21.20;42.70;;;;;;4962411;28;20500;-92
2021/10/01 14:30:58;;;;;;;1.40;1.13;;;23.10;42.00;;;;;;4957760;28;20509;-87
2021/10/01 14:33:24;;;;;;;2.07;0.90;;;21.10;41.60;;;;;;4964845;28;20181;-90
2021/10/01 14:35:49;;;;;;;2.13;1.30;;;21.80;40.30;;;;;;4961046;28;20477;-90
2021/10/01 14:38:18;;;;;;;0.90;0.90;;;22.90;41.10;;;;;;4978935;28;20265;-90
2021/10/01 14:40:45;;;;;;;1.20;1.10;;;20.90;39.60;;;;;;4961077;28;20290;-90
2021/10/01 14:43:10;;;;;;;11.00;1.47;;;20.80;40.50;;;;;;4960867;28;20829;-88
2021/10/01 14:45:38;;;;;;;1.10;1.10;;;22.30;41.40;;;;;;4963719;28;20425;-89
2021/10/01 14:48:04;;;;;;;0.97;0.97;;;22.60;42.00;;;;;;4965189;28;20197;-92
2021/10/01 14:50:30;;;;;;;1.30;1.30;;;20.50;41.00;;;;;;4979786;28;20440;-90
2021/10/01 14:52:56;;;;;;;1.13;1.13;;;20.40;42.00;;;;;;4962129;28;20425;-91
2021/10/01 14:55:25;;;;;;;2.30;1.27;;;20.40;41.70;;;;;;4961706;28;20425;-89
2021/10/01 14:57:52;;;;;;;0.63;0.63;;;21.90;45.00;;;;;;4960791;28;20178;-87
2021/10/01 15:00:18;;;;;;;1.00;0.97;;;20.00;41.20;;;;;;4980038;28;20413;-92
2021/10/01 15:02:43;;;;;;;10.03;2.20;;;21.80;44.10;;;;;;4963924;28;20485;-89
2021/10/01 15:05:09;;;;;;;2.53;1.27;;;21.70;42.90;;;;;;4980597;28;20164;-88
2021/10/01 15:07:38;;;;;;;1.60;0.83;;;19.90;41.10;;;;;;4980712;28;20170;-91
2021/10/01 15:10:05;;;;;;;0.87;0.87;;;19.80;42.40;;;;;;4981129;28;20494;-90
2021/10/01 15:12:34;;;;;;;1.93;0.80;;;19.80;41.60;;;;;;4962356;28;20528;-90
2021/10/01 15:15:07;;;;;;;1.23;1.23;;;20.80;41.80;;;;;;5014332;23;20497;-88
2021/10/01 15:17:33;;;;;;;1.83;1.07;;;21.60;44.30;;;;;;4994170;28;20419;-88